Time;durP1;ratioP1;P1;durP2;ratioP2;P2;SDS_P1;SDS_P2;PMS_P1;PMS_P2;Temp;Humidity;BMP_temperature;BMP_pressure;BME280_temperature;BME280_humidity;BME280_pressure;Samples;Min_cycle;Max_cycle;Signal;HPM_P1;HPM_P2
2023/12/03 00:02:08;;;;;;;17.30;13.63;;;-2.60;1.00;;;;;;5100743;28;20496;-42
2023/12/03 00:04:34;;;;;;;17.60;13.93;;;-2.60;99.90;;;;;;5101058;28;20512;-42
2023/12/03 00:07:00;;;;;;;20.67;14.40;;;-2.60;1.00;;;;;;5118792;28;20793;-42
2023/12/03 00:09:25;;;;;;;14.67;12.27;;;-2.60;99.90;;;;;;5117393;28;20195;-43
2023/12/03 00:11:51;;;;;;;16.33;12.27;;;-2.70;99.90;;;;;;5100130;28;20239;-42
2023/12/03 00:14:17;;;;;;;14.23;11.17;;;-2.70;1.00;;;;;;5117338;28;20183;-41
2023/12/03 00:16:42;;;;;;;17.87;13.43;;;-2.80;1.00;;;;;;5097307;28;20184;-39
2023/12/03 00:19:08;;;;;;;15.13;12.07;;;-2.90;1.00;;;;;;5116250;28;20179;-42
2023/12/03 00:21:34;;;;;;;17.20;12.40;;;-3.00;1.00;;;;;;5116726;28;20506;-42
2023/12/03 00:24:00;;;;;;;13.80;11.53;;;-2.90;1.00;;;;;;5083250;28;20226;-41
2023/12/03 00:26:25;;;;;;;17.50;11.37;;;-2.90;1.00;;;;;;5117576;28;20180;-41
2023/12/03 00:28:51;;;;;;;13.63;10.53;;;-2.80;99.90;;;;;;5118575;28;20184;-41
2023/12/03 00:31:16;;;;;;;12.60;10.90;;;-2.90;1.00;;;;;;5077208;28;1150012;-40
2023/12/03 00:33:42;;;;;;;14.13;10.47;;;-2.90;1.00;;;;;;5119943;28;20202;-39
2023/12/03 00:36:08;;;;;;;15.13;10.77;;;-3.00;99.90;;;;;;5118123;28;20175;-43
2023/12/03 00:38:33;;;;;;;15.43;11.23;;;-3.00;99.90;;;;;;5117016;28;20287;-42
2023/12/03 00:40:59;;;;;;;12.63;10.10;;;-3.00;1.00;;;;;;5116415;28;20887;-41
2023/12/03 00:43:24;;;;;;;14.70;10.97;;;-3.00;1.00;;;;;;5115682;28;20192;-40
2023/12/03 00:45:51;;;;;;;12.73;10.50;;;-3.00;1.00;;;;;;5114573;28;20172;-42
2023/12/03 00:48:17;;;;;;;13.33;10.87;;;-3.00;99.90;;;;;;5115561;28;20161;-40
2023/12/03 00:50:43;;;;;;;13.67;10.40;;;-3.00;1.00;;;;;;5116976;28;20537;-41
2023/12/03 00:53:08;;;;;;;14.03;10.10;;;-2.90;1.00;;;;;;5118174;28;20172;-40
2023/12/03 00:55:34;;;;;;;13.83;10.30;;;-3.00;1.00;;;;;;5118872;28;20183;-40
2023/12/03 00:57:59;;;;;;;13.17;9.90;;;-3.00;99.90;;;;;;5119133;28;20433;-40
2023/12/03 01:00:25;;;;;;;13.47;10.77;;;-2.90;25.30;;;;;;5118336;28;20175;-40
2023/12/03 01:02:51;;;;;;;13.67;10.40;;;-3.00;12.00;;;;;;5100783;28;20576;-40
2023/12/03 01:05:17;;;;;;;13.50;10.93;;;-3.10;6.80;;;;;;5118118;28;20421;-40
2023/12/03 01:07:43;;;;;;;13.30;9.77;;;-3.10;96.80;;;;;;5119106;28;20557;-39
2023/12/03 01:10:08;;;;;;;11.07;9.20;;;-3.10;1.00;;;;;;5119066;28;20762;-40
2023/12/03 01:12:34;;;;;;;11.50;9.07;;;-3.20;39.40;;;;;;5118353;28;20168;-40
2023/12/03 01:15:04;;;;;;;13.27;10.57;;;-3.20;1.00;;;;;;5097809;28;20932;-41
2023/12/03 01:17:29;;;;;;;11.80;9.73;;;-3.20;99.90;;;;;;5118038;28;20179;-43
2023/12/03 01:19:55;;;;;;;13.30;9.60;;;-3.00;99.90;;;;;;5117994;28;20410;-43
2023/12/03 01:22:20;;;;;;;13.30;10.97;;;-3.00;1.00;;;;;;5100678;28;20178;-42
2023/12/03 01:24:46;;;;;;;11.90;9.27;;;-3.10;1.00;;;;;;5117806;28;20172;-41
2023/12/03 01:27:12;;;;;;;12.87;10.67;;;-3.00;19.40;;;;;;5118388;28;20178;-42
2023/12/03 01:29:38;;;;;;;15.20;10.50;;;-3.00;1.00;;;;;;5100285;28;20634;-43
2023/12/03 01:32:05;;;;;;;13.20;10.50;;;-2.90;32.10;;;;;;5117619;28;20732;-40
2023/12/03 01:34:31;;;;;;;12.70;10.30;;;-3.00;99.90;;;;;;5117813;28;20498;-40
2023/12/03 01:36:57;;;;;;;12.57;9.70;;;-3.00;99.90;;;;;;5118086;28;20741;-43
2023/12/03 01:39:23;;;;;;;15.40;10.67;;;-3.00;99.90;;;;;;5117598;28;20418;-40
2023/12/03 01:41:52;;;;;;;16.67;11.53;;;-2.90;99.90;;;;;;5117411;28;20428;-40
2023/12/03 01:44:18;;;;;;;12.50;9.53;;;-2.90;99.90;;;;;;5116562;28;20174;-41
2023/12/03 01:46:46;;;;;;;14.57;10.73;;;-2.90;1.00;;;;;;5117006;28;20504;-41
2023/12/03 01:49:12;;;;;;;11.47;9.17;;;-2.90;1.00;;;;;;5099295;28;20425;-41
2023/12/03 01:51:37;;;;;;;14.03;9.50;;;-2.90;1.00;;;;;;5116799;28;20796;-41
2023/12/03 01:54:03;;;;;;;10.93;8.67;;;-3.00;99.90;;;;;;5116530;28;20186;-40
2023/12/03 01:56:29;;;;;;;13.63;10.03;;;-3.00;1.00;;;;;;5117551;28;20218;-40
2023/12/03 01:58:55;;;;;;;12.47;9.13;;;-3.00;99.90;;;;;;5099692;28;20380;-42
2023/12/03 02:01:21;;;;;;;14.37;10.10;;;-3.00;1.00;;;;;;5099795;28;20179;-41
2023/12/03 02:03:46;;;;;;;13.30;10.10;;;-3.00;1.00;;;;;;5117360;28;20436;-40
2023/12/03 02:06:12;;;;;;;12.17;10.57;;;-3.00;1.00;;;;;;5117705;28;20187;-40
2023/12/03 02:08:38;;;;;;;14.07;9.90;;;-2.90;1.00;;;;;;5117911;28;20228;-44
2023/12/03 02:11:05;;;;;;;12.90;10.10;;;-2.90;1.00;;;;;;5118580;28;20238;-41
2023/12/03 02:13:36;;;;;;;10.40;9.30;;;-2.80;99.90;;;;;;5117912;28;20176;-40
2023/12/03 02:16:01;;;;;;;13.40;9.40;;;-2.70;70.40;;;;;;5117822;28;20512;-43
2023/12/03 02:18:27;;;;;;;11.63;10.20;;;-2.80;1.00;;;;;;5117791;28;20582;-41
2023/12/03 02:20:56;;;;;;;11.83;9.50;;;-2.80;1.00;;;;;;5117472;28;20187;-42
2023/12/03 02:23:21;;;;;;;13.40;10.37;;;-2.80;99.90;;;;;;5116921;28;20414;-42
2023/12/03 02:25:48;;;;;;;14.20;10.27;;;-2.80;1.00;;;;;;5117069;28;20517;-41
2023/12/03 02:28:14;;;;;;;15.50;11.10;;;-2.80;1.00;;;;;;5098481;28;20172;-41
2023/12/03 02:30:40;;;;;;;13.60;10.37;;;-2.70;99.90;;;;;;5115646;28;20472;-41
2023/12/03 02:33:06;;;;;;;12.37;10.07;;;-2.70;99.90;;;;;;5116302;28;20234;-42
2023/12/03 02:35:31;;;;;;;12.77;10.97;;;-2.70;1.00;;;;;;5098190;28;20413;-41
2023/12/03 02:37:57;;;;;;;15.00;11.17;;;-2.70;99.90;;;;;;5117327;28;20246;-41
2023/12/03 02:40:23;;;;;;;17.23;10.87;;;-2.90;99.90;;;;;;5116391;28;20184;-40
2023/12/03 02:42:48;;;;;;;13.73;9.83;;;-2.90;1.00;;;;;;5115766;28;20274;-42
2023/12/03 02:45:14;;;;;;;14.17;10.60;;;-2.90;99.90;;;;;;5115151;28;20549;-40
2023/12/03 02:47:39;;;;;;;15.93;12.10;;;-2.80;1.00;;;;;;5114754;28;20274;-41
2023/12/03 02:50:05;;;;;;;12.33;10.80;;;-2.70;1.00;;;;;;5096202;28;20199;-40
2023/12/03 02:52:31;;;;;;;13.77;10.50;;;-2.70;66.20;;;;;;5114430;28;20248;-41
2023/12/03 02:54:56;;;;;;;14.13;11.47;;;-2.80;1.00;;;;;;5114593;28;20430;-40
2023/12/03 02:57:22;;;;;;;14.17;10.20;;;-2.90;1.00;;;;;;5113316;28;20188;-42
2023/12/03 02:59:47;;;;;;;12.67;9.90;;;-2.90;1.00;;;;;;5112799;28;20704;-41
2023/12/03 03:02:13;;;;;;;15.60;11.47;;;-2.90;1.00;;;;;;5114787;28;20168;-40
2023/12/03 03:04:39;;;;;;;14.60;11.63;;;-2.90;1.00;;;;;;5115073;28;20233;-41
2023/12/03 03:07:04;;;;;;;15.70;11.60;;;-2.90;99.90;;;;;;5114688;28;20179;-43
2023/12/03 03:09:30;;;;;;;17.03;11.00;;;-3.00;1.30;;;;;;5114903;28;20179;-42
2023/12/03 03:11:57;;;;;;;14.97;11.63;;;-3.00;1.00;;;;;;5115347;28;20322;-42
2023/12/03 03:14:23;;;;;;;15.03;11.60;;;-3.00;1.00;;;;;;5115626;28;20168;-40
2023/12/03 03:16:49;;;;;;;15.30;11.60;;;-3.00;1.00;;;;;;5115077;28;20409;-40
2023/12/03 03:19:15;;;;;;;12.97;10.73;;;-3.20;1.00;;;;;;5116234;28;20429;-41
2023/12/03 03:21:40;;;;;;;14.60;11.47;;;-3.10;47.40;;;;;;5116681;28;20184;-41
2023/12/03 03:24:06;;;;;;;13.37;10.67;;;-3.10;99.90;;;;;;5116418;28;20247;-42
2023/12/03 03:26:32;;;;;;;13.70;11.10;;;-3.10;99.90;;;;;;5097676;28;20760;-41
2023/12/03 03:28:58;;;;;;;14.57;10.87;;;-3.00;99.90;;;;;;5116457;28;20183;-40
2023/12/03 03:31:23;;;;;;;17.33;12.00;;;-3.10;99.90;;;;;;5098578;28;20319;-39
2023/12/03 03:33:50;;;;;;;15.90;11.70;;;-3.10;1.00;;;;;;5115553;28;20440;-40
2023/12/03 03:36:16;;;;;;;12.33;10.20;;;-3.10;1.00;;;;;;5116155;28;20179;-43
2023/12/03 03:38:43;;;;;;;16.87;12.07;;;-3.20;99.90;;;;;;5097906;28;20452;-40
2023/12/03 03:41:09;;;;;;;16.33;12.10;;;-3.10;1.00;;;;;;5116848;28;20418;-40
2023/12/03 03:43:35;;;;;;;17.20;11.70;;;-3.20;1.00;;;;;;5098099;28;20872;-41
2023/12/03 03:46:00;;;;;;;13.97;11.67;;;-3.20;1.00;;;;;;5116909;28;20433;-41
2023/12/03 03:48:26;;;;;;;17.53;11.87;;;-3.10;1.00;;;;;;5115669;28;20184;-40
2023/12/03 03:50:52;;;;;;;17.90;12.07;;;-3.10;1.00;;;;;;5115217;28;20223;-39
2023/12/03 03:53:17;;;;;;;18.33;12.70;;;-3.20;1.00;;;;;;5114878;28;20263;-43
2023/12/03 03:55:43;;;;;;;18.17;11.70;;;-3.20;1.00;;;;;;5119085;28;20557;-41
2023/12/03 03:58:08;;;;;;;17.43;12.50;;;-3.20;1.00;;;;;;5118085;28;20546;-40
2023/12/03 04:00:34;;;;;;;13.50;11.13;;;-3.10;99.90;;;;;;5119397;28;20194;-40
2023/12/03 04:03:00;;;;;;;17.60;12.50;;;-3.10;1.00;;;;;;5119622;28;20179;-40
2023/12/03 04:05:25;;;;;;;15.90;12.40;;;-3.10;99.90;;;;;;5118526;28;20184;-40
2023/12/03 04:07:51;;;;;;;15.50;11.27;;;-3.00;99.90;;;;;;5100920;28;20175;-39
2023/12/03 04:10:17;;;;;;;16.27;11.80;;;-3.00;99.90;;;;;;5118516;28;20216;-42
2023/12/03 04:12:42;;;;;;;14.13;11.30;;;-3.00;1.00;;;;;;5119137;28;20265;-43
2023/12/03 04:15:08;;;;;;;16.03;11.60;;;-2.90;1.00;;;;;;5119022;28;20184;-40
2023/12/03 04:17:34;;;;;;;16.63;12.03;;;-2.90;1.00;;;;;;5100718;28;20176;-41
2023/12/03 04:19:59;;;;;;;17.90;13.00;;;-2.90;1.00;;;;;;5118436;28;20406;-43
2023/12/03 04:22:25;;;;;;;18.77;12.73;;;-2.90;1.00;;;;;;5099423;28;20202;-40
2023/12/03 04:24:51;;;;;;;16.10;12.43;;;-3.00;1.00;;;;;;5117313;28;20472;-40
2023/12/03 04:27:16;;;;;;;17.57;12.63;;;-3.00;99.90;;;;;;5117451;28;20267;-40
2023/12/03 04:29:42;;;;;;;14.57;12.07;;;-3.00;99.90;;;;;;5100050;28;20180;-42
2023/12/03 04:32:08;;;;;;;19.07;13.43;;;-3.00;99.90;;;;;;5116595;28;20227;-42
2023/12/03 04:34:34;;;;;;;19.50;13.57;;;-3.00;99.90;;;;;;5117811;28;20183;-41
2023/12/03 04:36:59;;;;;;;16.17;12.97;;;-3.00;99.90;;;;;;5117805;28;20448;-43
2023/12/03 04:39:25;;;;;;;17.27;12.80;;;-3.00;99.90;;;;;;5116073;28;20184;-41
2023/12/03 04:41:51;;;;;;;13.60;11.90;;;-3.10;99.90;;;;;;5116980;28;20191;-41
2023/12/03 04:44:16;;;;;;;15.90;11.70;;;-3.10;99.90;;;;;;5117013;28;20263;-41
2023/12/03 04:46:42;;;;;;;17.90;12.37;;;-3.20;99.90;;;;;;5117425;28;20202;-41
2023/12/03 04:49:08;;;;;;;14.03;10.33;;;-3.20;1.00;;;;;;5118099;28;20184;-40
2023/12/03 04:51:33;;;;;;;15.67;11.80;;;-3.30;1.00;;;;;;5117976;28;20280;-41
2023/12/03 04:53:59;;;;;;;15.20;11.50;;;-3.30;1.00;;;;;;5117546;28;20184;-40
2023/12/03 04:56:25;;;;;;;15.07;12.07;;;-3.30;1.00;;;;;;5118544;28;20172;-43
2023/12/03 04:58:51;;;;;;;15.90;11.63;;;-3.40;1.00;;;;;;5117793;28;20482;-41
2023/12/03 05:01:19;;;;;;;14.50;10.63;;;-3.40;1.00;;;;;;5118589;28;20184;-40
2023/12/03 05:03:45;;;;;;;16.50;12.57;;;-3.40;1.00;;;;;;5117294;28;20566;-42
2023/12/03 05:06:12;;;;;;;17.63;11.40;;;-3.50;1.00;;;;;;5115495;28;20472;-40
2023/12/03 05:08:37;;;;;;;17.67;12.20;;;-3.50;1.00;;;;;;5117083;28;20417;-40
2023/12/03 05:11:04;;;;;;;15.00;11.23;;;-3.50;1.00;;;;;;5118139;28;20973;-40
2023/12/03 05:13:33;;;;;;;15.70;11.70;;;-3.60;1.00;;;;;;5118337;28;20185;-41
2023/12/03 05:16:01;;;;;;;13.93;10.90;;;-3.70;1.00;;;;;;5117817;28;21020;-43
2023/12/03 05:18:27;;;;;;;16.20;10.80;;;-3.70;1.00;;;;;;5116515;28;20857;-44
2023/12/03 05:20:52;;;;;;;16.63;12.53;;;-3.70;1.00;;;;;;5116124;28;20430;-41
2023/12/03 05:23:18;;;;;;;15.33;11.17;;;-3.80;45.90;;;;;;5116054;28;20244;-41
2023/12/03 05:25:44;;;;;;;15.53;11.20;;;-3.80;99.90;;;;;;5114827;28;20191;-41
2023/12/03 05:28:10;;;;;;;15.20;10.83;;;-3.80;99.90;;;;;;5114984;28;20421;-47
2023/12/03 05:30:35;;;;;;;18.10;9.00;;;-3.80;99.90;;;;;;5115398;28;20631;-45
2023/12/03 05:33:01;;;;;;;29.80;19.70;;;4.20;1.00;;;;;;5115917;28;20223;-41
2023/12/03 05:35:26;;;;;;;30.10;22.63;;;6.00;1.00;;;;;;5116102;28;20183;-40
2023/12/03 05:37:52;;;;;;;19.53;14.83;;;3.90;1.00;;;;;;5116072;28;20284;-40
2023/12/03 05:40:18;;;;;;;17.53;14.03;;;2.30;1.00;;;;;;5116708;28;20184;-40
2023/12/03 05:42:43;;;;;;;18.10;14.50;;;1.00;1.00;;;;;;5117500;28;20184;-39
2023/12/03 05:45:09;;;;;;;15.83;13.20;;;0.00;99.90;;;;;;5118022;28;20186;-41
2023/12/03 05:47:35;;;;;;;18.67;14.80;;;-0.80;99.90;;;;;;5116728;28;20723;-41
2023/12/03 05:50:02;;;;;;;19.03;14.17;;;-1.30;99.90;;;;;;5114813;28;20262;-40
2023/12/03 05:52:28;;;;;;;19.67;15.43;;;-1.70;1.00;;;;;;5114761;28;20580;-40
2023/12/03 05:54:54;;;;;;;18.67;14.33;;;-2.00;1.00;;;;;;5115120;28;20763;-40
2023/12/03 05:57:20;;;;;;;20.17;15.13;;;-2.30;1.00;;;;;;5115611;28;20428;-41
2023/12/03 05:59:45;;;;;;;21.13;15.07;;;-2.60;1.00;;;;;;5115963;28;20482;-39
2023/12/03 06:02:11;;;;;;;23.00;15.90;;;-2.90;1.00;;;;;;5115132;28;20176;-39
2023/12/03 06:04:36;;;;;;;22.00;15.33;;;-3.00;1.00;;;;;;5114980;28;20205;-40
2023/12/03 06:07:02;;;;;;;21.20;14.67;;;-3.20;1.00;;;;;;5115068;28;20190;-39
2023/12/03 06:09:28;;;;;;;21.57;13.87;;;-3.30;1.00;;;;;;5116261;28;20264;-40
2023/12/03 06:11:55;;;;;;;29.93;20.00;;;-3.40;1.00;;;;;;5116548;28;20569;-40
2023/12/03 06:14:20;;;;;;;37.93;25.90;;;-3.60;1.00;;;;;;5115265;28;20236;-40
2023/12/03 06:16:46;;;;;;;27.27;19.50;;;-3.70;1.00;;;;;;5114778;28;20520;-40
2023/12/03 06:19:11;;;;;;;27.73;18.23;;;-3.80;1.00;;;;;;5116176;28;20180;-44
2023/12/03 06:21:37;;;;;;;26.33;18.30;;;-3.80;1.00;;;;;;5115511;28;20454;-41
2023/12/03 06:24:03;;;;;;;29.43;19.77;;;-3.90;1.00;;;;;;5115909;28;20251;-40
2023/12/03 06:26:28;;;;;;;29.23;22.63;;;-3.90;1.00;;;;;;5115141;28;20190;-40
2023/12/03 06:28:54;;;;;;;35.60;23.90;;;-4.00;1.00;;;;;;5097593;28;20529;-41
2023/12/03 06:31:20;;;;;;;31.27;21.63;;;-4.00;1.00;;;;;;5115102;28;20238;-40
2023/12/03 06:33:46;;;;;;;31.50;20.03;;;-4.00;1.00;;;;;;5096741;28;20722;-41
2023/12/03 06:36:12;;;;;;;26.43;19.30;;;-4.10;1.00;;;;;;5115718;28;20447;-41
2023/12/03 06:38:37;;;;;;;30.73;20.20;;;-4.10;1.00;;;;;;5114968;28;20459;-41
2023/12/03 06:41:03;;;;;;;27.90;19.90;;;-4.20;1.00;;;;;;5115716;28;20196;-42
2023/12/03 06:43:29;;;;;;;25.40;19.63;;;-4.20;1.00;;;;;;5115323;28;20203;-40
2023/12/03 06:45:54;;;;;;;26.53;18.30;;;-4.30;1.00;;;;;;5115370;28;20429;-40
2023/12/03 06:48:21;;;;;;;33.67;19.53;;;-4.30;1.00;;;;;;5098186;28;20187;-42
2023/12/03 06:50:47;;;;;;;27.60;18.40;;;-4.30;1.00;;;;;;5116601;28;20532;-40
2023/12/03 06:53:13;;;;;;;25.90;17.50;;;-4.40;1.00;;;;;;5116365;28;20413;-41
2023/12/03 06:55:38;;;;;;;28.90;17.20;;;-4.40;1.00;;;;;;5116503;28;20262;-41
2023/12/03 06:58:04;;;;;;;23.90;17.00;;;-4.50;1.00;;;;;;5116138;28;20673;-40
2023/12/03 07:00:29;;;;;;;24.53;17.37;;;-4.50;1.00;;;;;;5115124;28;20187;-41
2023/12/03 07:02:55;;;;;;;26.00;17.23;;;-4.50;1.00;;;;;;5113980;28;20267;-41
2023/12/03 07:05:21;;;;;;;23.83;16.73;;;-4.50;1.00;;;;;;5114432;28;20221;-40
2023/12/03 07:07:50;;;;;;;27.73;17.20;;;-4.50;1.00;;;;;;5115540;28;20179;-41
2023/12/03 07:10:16;;;;;;;24.60;15.13;;;-4.60;1.00;;;;;;5116159;28;20734;-40
2023/12/03 07:12:42;;;;;;;23.27;16.97;;;-4.60;1.00;;;;;;5116531;28;20520;-41
2023/12/03 07:15:09;;;;;;;24.87;17.20;;;-4.60;1.00;;;;;;5116646;28;20400;-40
2023/12/03 07:17:35;;;;;;;22.23;16.60;;;-4.60;1.00;;;;;;5115765;28;20225;-39
2023/12/03 07:20:01;;;;;;;28.50;18.50;;;-4.60;99.90;;;;;;5098281;28;20818;-40
2023/12/03 07:22:26;;;;;;;25.37;18.67;;;-4.60;99.90;;;;;;5115889;28;20523;-40
2023/12/03 07:24:53;;;;;;;23.97;16.30;;;-4.50;99.90;;;;;;5115882;28;20172;-40
2023/12/03 07:27:18;;;;;;;24.07;17.03;;;-4.50;27.00;;;;;;5117365;28;20203;-40
2023/12/03 07:29:45;;;;;;;22.10;15.87;;;-4.40;1.00;;;;;;5119587;28;20448;-40
2023/12/03 07:32:10;;;;;;;20.93;15.27;;;-4.30;1.00;;;;;;5086300;28;20226;-44
2023/12/03 07:34:36;;;;;;;22.03;15.60;;;-4.20;1.00;;;;;;5120187;28;20429;-40
2023/12/03 07:37:05;;;;;;;23.03;16.23;;;-4.10;1.00;;;;;;5120130;28;20270;-41
2023/12/03 07:39:30;;;;;;;20.57;15.83;;;-3.90;99.90;;;;;;5100355;28;20518;-40
2023/12/03 07:41:56;;;;;;;22.07;15.77;;;-3.80;99.90;;;;;;5117961;28;20429;-39
2023/12/03 07:44:22;;;;;;;21.37;15.13;;;-3.50;99.90;;;;;;5101389;28;20192;-41
2023/12/03 07:46:48;;;;;;;26.00;16.63;;;-3.40;1.00;;;;;;5119780;28;20172;-40
2023/12/03 07:49:13;;;;;;;21.60;15.90;;;-3.10;1.00;;;;;;5118020;28;20193;-40
2023/12/03 07:51:39;;;;;;;26.77;19.47;;;-2.90;1.00;;;;;;5101158;28;20626;-41
2023/12/03 07:54:04;;;;;;;25.07;18.50;;;-2.60;99.90;;;;;;5118672;28;20172;-41
2023/12/03 07:56:37;;;;;;;21.33;14.90;;;-2.40;1.00;;;;;;5101446;28;20179;-40
2023/12/03 07:59:03;;;;;;;19.07;14.37;;;-2.10;25.90;;;;;;5117466;28;20172;-40
2023/12/03 08:01:28;;;;;;;19.77;14.33;;;-2.00;1.00;;;;;;5120147;28;20425;-42
2023/12/03 08:03:54;;;;;;;19.10;13.97;;;-1.90;99.90;;;;;;5118641;28;20171;-43
2023/12/03 08:06:20;;;;;;;17.73;13.40;;;-1.80;1.00;;;;;;5119259;28;20268;-42
2023/12/03 08:08:45;;;;;;;20.03;15.60;;;-1.60;99.90;;;;;;5100398;28;20417;-42
2023/12/03 08:11:12;;;;;;;19.63;14.73;;;-1.40;1.00;;;;;;5118631;28;20276;-41
2023/12/03 08:13:41;;;;;;;18.97;15.53;;;-1.20;1.00;;;;;;5119011;28;20262;-41
2023/12/03 08:16:10;;;;;;;18.63;13.90;;;-1.00;99.90;;;;;;5100857;28;20429;-42
2023/12/03 08:18:37;;;;;;;19.63;14.00;;;-0.70;1.00;;;;;;5118008;28;20524;-42
2023/12/03 08:21:03;;;;;;;16.13;12.43;;;-0.50;99.90;;;;;;5117557;28;20841;-41
2023/12/03 08:23:30;;;;;;;17.43;12.83;;;-0.40;99.90;;;;;;5118647;28;20482;-40
2023/12/03 08:25:56;;;;;;;20.20;13.23;;;-0.40;4.60;;;;;;5117651;28;20402;-42
2023/12/03 08:28:22;;;;;;;18.13;13.53;;;-0.20;1.00;;;;;;5099223;28;20425;-41
2023/12/03 08:30:48;;;;;;;16.40;12.47;;;-0.20;1.00;;;;;;5119500;28;20212;-40
2023/12/03 08:33:14;;;;;;;16.17;13.37;;;0.10;99.90;;;;;;5100202;28;20227;-40
2023/12/03 08:35:40;;;;;;;17.00;12.67;;;0.30;1.00;;;;;;5100411;28;20437;-41
2023/12/03 08:38:06;;;;;;;15.07;12.10;;;0.70;1.00;;;;;;5118904;28;20409;-44
2023/12/03 08:40:32;;;;;;;19.10;13.60;;;1.00;1.00;;;;;;5100395;28;20209;-41
2023/12/03 08:42:58;;;;;;;17.77;13.83;;;1.40;99.90;;;;;;5099985;28;20240;-39
2023/12/03 08:45:24;;;;;;;16.17;11.90;;;1.70;99.90;;;;;;5100207;28;20429;-40
2023/12/03 08:47:49;;;;;;;18.93;14.80;;;2.00;99.90;;;;;;5116894;28;20444;-40
2023/12/03 08:50:15;;;;;;;16.33;13.30;;;2.30;99.90;;;;;;5115051;28;20256;-40
2023/12/03 08:52:41;;;;;;;14.90;12.50;;;2.60;45.70;;;;;;5115873;28;20183;-42
2023/12/03 08:55:07;;;;;;;14.70;12.27;;;2.90;1.00;;;;;;5114843;28;20247;-40
2023/12/03 08:57:32;;;;;;;17.03;13.43;;;3.20;1.00;;;;;;5116489;28;20331;-42
2023/12/03 08:59:58;;;;;;;14.23;11.90;;;3.60;1.00;;;;;;5096931;28;20430;-41
2023/12/03 09:02:24;;;;;;;13.80;11.67;;;3.80;1.00;;;;;;5114744;28;20226;-42
2023/12/03 09:04:52;;;;;;;13.63;12.10;;;3.80;1.00;;;;;;5113950;28;20232;-41
2023/12/03 09:07:18;;;;;;;16.20;13.10;;;3.90;1.00;;;;;;5098245;28;20634;-44
2023/12/03 09:09:43;;;;;;;16.10;12.37;;;3.90;1.00;;;;;;5117347;28;20574;-41
2023/12/03 09:12:09;;;;;;;13.90;11.77;;;3.70;1.00;;;;;;5115486;28;20203;-40
2023/12/03 09:14:35;;;;;;;15.47;13.30;;;3.50;1.00;;;;;;5114171;28;20168;-40
2023/12/03 09:17:03;;;;;;;15.50;12.00;;;2.90;1.00;;;;;;5113573;28;20414;-45
2023/12/03 09:19:29;;;;;;;19.00;15.27;;;2.90;1.00;;;;;;5113391;28;20172;-42
2023/12/03 09:21:55;;;;;;;14.93;13.13;;;3.10;1.00;;;;;;5113655;28;20541;-42
2023/12/03 09:24:20;;;;;;;17.10;14.17;;;3.30;1.00;;;;;;5113669;28;20827;-44
2023/12/03 09:26:47;;;;;;;14.87;12.60;;;3.20;1.00;;;;;;5115341;28;20451;-41
2023/12/03 09:29:13;;;;;;;14.87;12.90;;;3.20;1.00;;;;;;5116079;28;20248;-41
2023/12/03 09:31:39;;;;;;;15.87;13.23;;;3.30;1.00;;;;;;5115380;28;20582;-41
2023/12/03 09:34:08;;;;;;;14.53;12.40;;;3.20;1.00;;;;;;5115721;28;20437;-41
2023/12/03 09:36:34;;;;;;;16.80;12.97;;;3.40;1.00;;;;;;5097273;28;20490;-39
2023/12/03 09:39:00;;;;;;;16.63;13.90;;;3.70;1.00;;;;;;5114512;28;20449;-41
2023/12/03 09:41:29;;;;;;;16.40;14.20;;;3.90;1.00;;;;;;5114333;28;20417;-41
2023/12/03 09:43:58;;;;;;;19.50;15.40;;;3.80;1.00;;;;;;5114929;28;20456;-41
2023/12/03 09:46:24;;;;;;;17.17;14.20;;;3.70;1.00;;;;;;5115406;28;20434;-41
2023/12/03 09:48:51;;;;;;;17.63;14.13;;;3.60;1.00;;;;;;5115358;28;20441;-40
2023/12/03 09:51:18;;;;;;;16.97;14.10;;;3.60;1.00;;;;;;5114911;28;20222;-41
2023/12/03 09:53:46;;;;;;;18.17;14.83;;;3.70;1.00;;;;;;5098346;28;20449;-40
2023/12/03 09:56:12;;;;;;;17.00;14.73;;;3.60;1.00;;;;;;5118370;28;20524;-42
2023/12/03 09:58:38;;;;;;;16.63;14.47;;;3.70;1.00;;;;;;5116745;28;20482;-40
2023/12/03 10:01:04;;;;;;;18.13;14.70;;;3.80;1.00;;;;;;5115851;28;20498;-41
2023/12/03 10:03:30;;;;;;;15.63;13.20;;;4.00;1.00;;;;;;5115218;28;20716;-41
2023/12/03 10:05:56;;;;;;;15.53;12.80;;;4.20;1.00;;;;;;5115673;28;20482;-42
2023/12/03 10:08:22;;;;;;;14.77;12.40;;;4.20;1.00;;;;;;5116019;28;20709;-42
2023/12/03 10:11:03;;;;;;;17.13;14.77;;;4.30;1.00;;;;;;5098139;28;20468;-43
2023/12/03 10:13:31;;;;;;;14.67;12.30;;;4.70;1.00;;;;;;5113439;28;20826;-42
2023/12/03 10:15:57;;;;;;;17.23;14.13;;;4.90;1.00;;;;;;5095292;28;21107;-42
2023/12/03 10:18:23;;;;;;;15.30;12.80;;;5.10;1.00;;;;;;5113698;28;20430;-40
2023/12/03 10:20:50;;;;;;;15.93;12.90;;;5.20;1.00;;;;;;5113255;28;20270;-42
2023/12/03 10:23:18;;;;;;;14.73;13.13;;;5.40;1.00;;;;;;5114119;28;20799;-41
2023/12/03 10:25:44;;;;;;;16.50;12.70;;;5.70;1.00;;;;;;5114708;28;20442;-42
2023/12/03 10:28:11;;;;;;;14.10;12.37;;;5.70;1.00;;;;;;5115376;28;20524;-40
2023/12/03 10:30:37;;;;;;;14.00;12.53;;;5.50;1.00;;;;;;5114758;28;20210;-41
2023/12/03 10:33:05;;;;;;;15.77;12.50;;;5.40;1.00;;;;;;5115128;28;20573;-41
2023/12/03 10:35:34;;;;;;;15.10;13.47;;;5.20;1.00;;;;;;5095983;28;20182;-41
2023/12/03 10:38:00;;;;;;;17.30;13.70;;;5.50;1.00;;;;;;5096777;28;20425;-38
2023/12/03 10:40:25;;;;;;;12.93;11.03;;;5.10;1.00;;;;;;5114825;28;20436;-40
2023/12/03 10:42:51;;;;;;;15.00;12.90;;;5.10;1.00;;;;;;5114278;28;20191;-40
2023/12/03 10:45:17;;;;;;;14.50;12.43;;;5.20;1.00;;;;;;5114433;28;20493;-40
2023/12/03 10:47:43;;;;;;;12.47;11.07;;;5.60;1.00;;;;;;5113553;28;20184;-40
2023/12/03 10:50:11;;;;;;;15.67;11.90;;;5.60;1.00;;;;;;5096855;28;20176;-41
2023/12/03 10:52:38;;;;;;;12.93;11.30;;;5.30;1.00;;;;;;5096780;28;20437;-39
2023/12/03 10:55:04;;;;;;;14.27;11.30;;;5.40;1.00;;;;;;5114088;28;20421;-39
2023/12/03 10:57:31;;;;;;;13.77;10.87;;;5.10;1.00;;;;;;5113611;28;20429;-42
2023/12/03 11:00:02;;;;;;;12.97;11.57;;;4.50;1.00;;;;;;5096397;28;20432;-42
2023/12/03 11:02:29;;;;;;;13.83;11.93;;;4.80;1.00;;;;;;5095265;28;20854;-40
2023/12/03 11:05:05;;;;;;;13.03;11.70;;;5.30;1.00;;;;;;5099876;28;20409;-44
2023/12/03 11:07:32;;;;;;;13.30;11.23;;;5.80;1.00;;;;;;5118469;28;20436;-40
2023/12/03 11:09:58;;;;;;;13.97;10.80;;;5.90;1.00;;;;;;5082246;28;20433;-41
2023/12/03 11:12:24;;;;;;;12.27;10.90;;;5.50;1.00;;;;;;5099613;28;20473;-41
2023/12/03 11:14:51;;;;;;;12.40;10.87;;;5.20;1.00;;;;;;5119070;28;20183;-40
2023/12/03 11:17:28;;;;;;;11.83;10.57;;;5.20;1.00;;;;;;5119922;28;20515;-40
2023/12/03 11:19:56;;;;;;;11.87;10.50;;;5.10;1.00;;;;;;5100622;28;20424;-42
2023/12/03 11:22:38;;;;;;;12.10;10.60;;;5.90;1.00;;;;;;5118143;28;20437;-40
2023/12/03 11:25:14;;;;;;;11.20;9.70;;;6.40;1.00;;;;;;5098597;28;20469;-42
2023/12/03 11:27:43;;;;;;;11.53;10.37;;;6.80;1.00;;;;;;5099717;28;20485;-42
2023/12/03 11:30:10;;;;;;;10.20;9.13;;;6.90;1.00;;;;;;5100152;28;20429;-42
2023/12/03 11:32:36;;;;;;;10.80;9.40;;;7.20;1.00;;;;;;5116704;28;20484;-46
2023/12/03 11:35:13;;;;;;;10.70;9.23;;;7.40;1.00;;;;;;5099332;28;20417;-41
2023/12/03 11:37:42;;;;;;;11.30;10.10;;;7.70;1.00;;;;;;5117721;28;20843;-40
2023/12/03 11:40:15;;;;;;;11.00;9.27;;;7.50;1.00;;;;;;5118076;28;20571;-40
2023/12/03 11:42:49;;;;;;;10.27;9.20;;;7.40;1.00;;;;;;5081143;28;20514;-40
2023/12/03 11:45:25;;;;;;;10.50;9.40;;;7.60;1.00;;;;;;5118033;28;20447;-39
2023/12/03 11:48:06;;;;;;;10.43;9.33;;;7.00;1.00;;;;;;5098951;28;20419;-40
2023/12/03 11:50:42;;;;;;;10.60;9.50;;;7.00;1.00;;;;;;5116142;28;20551;-42
2023/12/03 11:53:09;;;;;;;12.00;10.47;;;7.10;1.00;;;;;;5099305;28;20413;-42
2023/12/03 11:55:36;;;;;;;11.63;10.40;;;7.20;1.00;;;;;;5116949;28;20486;-41
2023/12/03 11:58:03;;;;;;;10.70;9.50;;;6.60;1.00;;;;;;5099069;28;20507;-41
2023/12/03 12:00:29;;;;;;;12.47;10.43;;;7.00;1.00;;;;;;5118027;28;20429;-40
2023/12/03 12:02:54;;;;;;;11.33;10.13;;;6.80;1.00;;;;;;5099755;28;20680;-40
2023/12/03 12:05:20;;;;;;;12.57;9.30;;;6.70;1.00;;;;;;5117139;28;20436;-41
2023/12/03 12:08:03;;;;;;;10.80;9.67;;;6.80;1.00;;;;;;5117108;28;20248;-39
2023/12/03 12:10:32;;;;;;;11.73;10.53;;;6.80;1.00;;;;;;5117497;28;20341;-39
2023/12/03 12:12:59;;;;;;;13.37;10.90;;;7.00;1.00;;;;;;5115381;28;20448;-41
2023/12/03 12:15:25;;;;;;;11.87;10.57;;;7.50;1.00;;;;;;5116432;28;21042;-40
2023/12/03 12:17:50;;;;;;;13.23;10.97;;;7.40;1.00;;;;;;5117419;28;20494;-41
2023/12/03 12:20:26;;;;;;;11.60;10.40;;;7.80;1.00;;;;;;5099889;28;20425;-41
2023/12/03 12:22:53;;;;;;;12.03;10.83;;;8.20;1.00;;;;;;5117195;28;20210;-41
2023/12/03 12:25:24;;;;;;;11.30;10.10;;;8.50;1.00;;;;;;5100142;28;20458;-42
2023/12/03 12:27:50;;;;;;;11.93;10.53;;;9.00;1.00;;;;;;5115133;28;20432;-42
2023/12/03 12:30:19;;;;;;;13.97;12.50;;;8.80;1.00;;;;;;5116846;28;20528;-39
2023/12/03 12:32:51;;;;;;;11.10;9.97;;;9.20;1.00;;;;;;5118104;28;20773;-41
2023/12/03 12:35:18;;;;;;;10.50;9.40;;;9.00;1.00;;;;;;5113958;28;20556;-39